Time;durP1;ratioP1;P1;durP2;ratioP2;P2;SDS_P1;SDS_P2;PMS_P1;PMS_P2;Temp;Humidity;BMP_temperature;BMP_pressure;BME280_temperature;BME280_humidity;BME280_pressure;Samples;Min_cycle;Max_cycle;Signal;HPM_P1;HPM_P2
2022/09/13 00:00:55;;;;;;;;;;;19.20;99.90;;;;;;5100367;28;19908;-82
2022/09/13 00:03:21;;;;;;;;;;;19.20;99.90;;;;;;5099776;28;20018;-84
2022/09/13 00:05:46;;;;;;;;;;;19.20;99.90;;;;;;5100646;28;19908;-83
2022/09/13 00:08:12;;;;;;;;;;;19.30;99.90;;;;;;5101868;28;19950;-83
2022/09/13 00:10:38;;;;;;;;;;;19.20;99.90;;;;;;5100602;28;19962;-83
2022/09/13 00:13:05;;;;;;;;;;;19.30;99.90;;;;;;5100654;28;19912;-83
2022/09/13 00:15:30;;;;;;;;;;;19.20;99.90;;;;;;5100068;28;19912;-82
2022/09/13 00:17:56;;;;;;;;;;;19.20;99.90;;;;;;5099316;28;19939;-83
2022/09/13 00:20:21;;;;;;;;;;;19.10;99.90;;;;;;5099892;28;20328;-83
2022/09/13 00:22:47;;;;;;;;;;;19.10;99.90;;;;;;5099656;28;19908;-84
2022/09/13 00:25:12;;;;;;;;;;;19.10;99.90;;;;;;5100226;28;19908;-84
2022/09/13 00:27:38;;;;;;;;;;;19.00;99.90;;;;;;5101384;28;19908;-83
2022/09/13 00:30:04;;;;;;;;;;;19.00;99.90;;;;;;5100503;28;20044;-84
2022/09/13 00:32:30;;;;;;;;;;;19.00;99.90;;;;;;5101787;28;20015;-84
2022/09/13 00:34:55;;;;;;;;;;;19.10;99.90;;;;;;5100186;28;19959;-83
2022/09/13 00:37:21;;;;;;;;;;;19.00;99.90;;;;;;5099032;28;19932;-84
2022/09/13 00:39:46;;;;;;;;;;;19.10;99.90;;;;;;5101577;28;19908;-84
2022/09/13 00:42:12;;;;;;;;;;;19.10;99.90;;;;;;5101077;28;19915;-84
2022/09/13 00:45:02;;;;;;;;;;;19.20;99.90;;;;;;5102392;28;20000;-83
2022/09/13 00:47:34;;;;;;;;;;;19.20;99.90;;;;;;5100690;28;19908;-85
2022/09/13 00:50:18;;;;;;;;;;;19.30;99.90;;;;;;5100449;28;19908;-84
2022/09/13 00:52:46;;;;;;;;;;;19.30;99.90;;;;;;5100295;28;19916;-84
2022/09/13 00:55:21;;;;;;;;;;;19.30;99.90;;;;;;5101023;28;20345;-83
2022/09/13 00:57:47;;;;;;;;;;;19.30;99.90;;;;;;5101320;28;19931;-83
2022/09/13 01:00:17;;;;;;;;;;;19.30;99.90;;;;;;5102811;28;20359;-83
2022/09/13 01:02:45;;;;;;;;;;;19.20;99.90;;;;;;5103189;28;20290;-84
2022/09/13 01:05:13;;;;;;;;;;;19.20;99.90;;;;;;5102611;28;19912;-83
2022/09/13 01:07:39;;;;;;;;;;;19.20;99.90;;;;;;5100036;28;19965;-84
2022/09/13 01:10:06;;;;;;;;;;;19.20;99.90;;;;;;5101718;28;19916;-84
2022/09/13 01:12:40;;;;;;;;;;;19.20;99.90;;;;;;5101436;28;19919;-84
2022/09/13 01:15:06;;;;;;;;;;;19.10;99.90;;;;;;5101810;28;19915;-83
2022/09/13 01:17:32;;;;;;;;;;;19.20;99.90;;;;;;5100941;28;19908;-82
2022/09/13 01:19:58;;;;;;;;;;;19.20;99.90;;;;;;5102663;28;19930;-83
2022/09/13 01:22:24;;;;;;;;;;;19.30;99.90;;;;;;5101789;28;19916;-84
2022/09/13 01:24:52;;;;;;;;;;;19.30;99.90;;;;;;5103182;28;19908;-84
2022/09/13 01:27:18;;;;;;;;;;;19.40;99.90;;;;;;5101218;28;20329;-82
2022/09/13 01:30:02;;;;;;;;;;;19.30;99.90;;;;;;5103835;28;19931;-83
2022/09/13 01:32:37;;;;;;;;;;;19.30;99.90;;;;;;5102265;28;19912;-84
2022/09/13 01:35:13;;;;;;;;;;;19.20;99.90;;;;;;5102263;28;19976;-83
2022/09/13 01:38:02;;;;;;;;;;;19.20;99.90;;;;;;5101929;28;19908;-83
2022/09/13 01:40:40;;;;;;;;;;;19.20;99.90;;;;;;5102524;28;20423;-83
2022/09/13 01:43:06;;;;;;;;;;;19.20;99.90;;;;;;5100628;28;19908;-82
2022/09/13 01:45:43;;;;;;;;;;;19.20;99.90;;;;;;5101060;28;19947;-84
2022/09/13 01:48:19;;;;;;;;;;;19.20;99.90;;;;;;5102850;28;19919;-82
2022/09/13 01:50:46;;;;;;;;;;;19.20;99.90;;;;;;5102046;28;19912;-82
2022/09/13 01:53:18;;;;;;;;;;;19.20;99.90;;;;;;5101562;28;19918;-83
2022/09/13 01:55:53;;;;;;;;;;;19.10;99.90;;;;;;5098493;28;19909;-83
2022/09/13 01:58:40;;;;;;;;;;;19.10;99.90;;;;;;5100739;28;20010;-83
2022/09/13 02:01:10;;;;;;;;;;;19.10;99.90;;;;;;5102101;28;20431;-84
2022/09/13 02:03:43;;;;;;;;;;;19.10;99.90;;;;;;5098425;28;19915;-83
2022/09/13 02:06:14;;;;;;;;;;;19.10;99.90;;;;;;5101325;28;19920;-83
2022/09/13 02:08:42;;;;;;;;;;;19.00;99.90;;;;;;5100867;28;19908;-83
2022/09/13 02:11:09;;;;;;;;;;;19.10;99.90;;;;;;5100001;28;20028;-83
2022/09/13 02:13:37;;;;;;;;;;;19.10;99.90;;;;;;5100653;28;20329;-83
2022/09/13 02:16:09;;;;;;;;;;;19.10;99.90;;;;;;5099395;28;19908;-84
2022/09/13 02:18:37;;;;;;;;;;;19.10;99.90;;;;;;5098950;28;19912;-82
2022/09/13 02:21:08;;;;;;;;;;;19.10;99.90;;;;;;5099504;28;19968;-83
2022/09/13 02:23:39;;;;;;;;;;;19.10;99.90;;;;;;5100374;28;19915;-82
2022/09/13 02:26:06;;;;;;;;;;;19.20;99.90;;;;;;5098231;28;20510;-83
2022/09/13 02:28:35;;;;;;;;;;;19.20;99.90;;;;;;5098247;28;19932;-83
2022/09/13 02:31:02;;;;;;;;;;;19.30;99.90;;;;;;5098766;28;19915;-83
2022/09/13 02:33:34;;;;;;;;;;;19.30;99.90;;;;;;5092092;28;20329;-83
2022/09/13 02:36:01;;;;;;;;;;;19.30;99.90;;;;;;5091249;28;19908;-83
2022/09/13 02:38:30;;;;;;;;;;;19.30;99.90;;;;;;5092762;28;20003;-82
2022/09/13 02:40:58;;;;;;;;;;;19.30;99.90;;;;;;5091268;28;19916;-82
2022/09/13 02:43:30;;;;;;;;;;;19.40;99.90;;;;;;5092754;28;19908;-83
2022/09/13 02:46:05;;;;;;;;;;;19.40;99.90;;;;;;5090752;28;19963;-83
2022/09/13 02:48:57;;;;;;;;;;;19.40;99.90;;;;;;5091639;28;19948;-83
2022/09/13 02:51:44;;;;;;;;;;;19.50;99.90;;;;;;5123344;22;19942;-83
2022/09/13 02:54:36;;;;;;;;;;;19.40;99.90;;;;;;5087308;28;19921;-82
2022/09/13 02:57:05;;;;;;;;;;;19.40;99.90;;;;;;5063656;28;19912;-82
2022/09/13 02:59:30;;;;;;;;;;;19.30;99.90;;;;;;5088867;28;19916;-82
2022/09/13 03:02:07;;;;;;;;;;;19.30;99.90;;;;;;5088513;28;19909;-83
2022/09/13 03:04:33;;;;;;;;;;;19.20;99.90;;;;;;5089251;28;19919;-82
2022/09/13 03:06:59;;;;;;;;;;;19.00;99.90;;;;;;5088525;28;19999;-82
2022/09/13 03:09:25;;;;;;;;;;;19.00;99.90;;;;;;5088748;28;20343;-83
2022/09/13 03:11:50;;;;;;;;;;;19.00;99.90;;;;;;5088861;28;19955;-82
2022/09/13 03:14:28;;;;;;;;;;;19.00;99.90;;;;;;5072186;28;20295;-82
2022/09/13 03:17:04;;;;;;;;;;;19.00;99.90;;;;;;5092291;28;19908;-83
2022/09/13 03:19:49;;;;;;;;;;;19.00;99.90;;;;;;5092562;28;19916;-82
2022/09/13 03:22:35;;;;;;;;;;;19.00;99.90;;;;;;5074587;28;20389;-82
2022/09/13 03:25:20;;;;;;;;;;;19.00;99.90;;;;;;5057741;28;19908;-82
2022/09/13 03:27:45;;;;;;;;;;;19.10;99.90;;;;;;5091967;28;19955;-82
2022/09/13 03:30:11;;;;;;;;;;;19.10;99.90;;;;;;5075441;28;20414;-82
2022/09/13 03:32:46;;;;;;;;;;;19.10;99.90;;;;;;5092211;28;19928;-82
2022/09/13 03:35:17;;;;;;;;;;;19.10;99.90;;;;;;5075289;28;19920;-82
2022/09/13 03:37:47;;;;;;;;;;;19.10;99.90;;;;;;5092042;28;20333;-82
2022/09/13 03:40:14;;;;;;;;;;;19.10;99.90;;;;;;5075023;28;19908;-82
2022/09/13 03:42:57;;;;;;;;;;;19.20;99.90;;;;;;5092277;28;19908;-83
2022/09/13 03:45:25;;;;;;;;;;;19.20;99.90;;;;;;5091925;28;19908;-82
2022/09/13 03:47:51;;;;;;;;;;;19.20;99.90;;;;;;5091959;28;20333;-82
2022/09/13 03:50:19;;;;;;;;;;;19.30;99.90;;;;;;5092072;28;19908;-83
2022/09/13 03:52:46;;;;;;;;;;;19.20;99.90;;;;;;5091514;28;19916;-82
2022/09/13 03:55:12;;;;;;;;;;;19.30;99.90;;;;;;5091732;28;19913;-82
2022/09/13 03:57:37;;;;;;;;;;;19.20;99.90;;;;;;5091556;28;20442;-83
2022/09/13 04:00:03;;;;;;;;;;;19.20;99.90;;;;;;5093652;28;19915;-82
2022/09/13 04:02:28;;;;;;;;;;;19.30;99.90;;;;;;5080714;28;19909;-83
2022/09/13 04:04:55;;;;;;;;;;;19.30;99.90;;;;;;5096517;28;19954;-83
2022/09/13 04:07:22;;;;;;;;;;;19.30;99.90;;;;;;5098135;28;19909;-82
2022/09/13 04:09:47;;;;;;;;;;;19.30;99.90;;;;;;5098487;28;19931;-83
2022/09/13 04:12:17;;;;;;;;;;;19.30;99.90;;;;;;5097626;28;19908;-82
2022/09/13 04:14:42;;;;;;;;;;;19.30;99.90;;;;;;5097153;28;19908;-83
2022/09/13 04:17:08;;;;;;;;;;;19.40;99.90;;;;;;5097698;28;19912;-83
2022/09/13 04:19:34;;;;;;;;;;;19.40;99.90;;;;;;5097364;28;19946;-83
2022/09/13 04:21:59;;;;;;;;;;;19.40;99.90;;;;;;5096767;28;19931;-83
2022/09/13 04:24:26;;;;;;;;;;;19.40;99.90;;;;;;5097205;28;20356;-83
2022/09/13 04:26:52;;;;;;;;;;;19.40;99.90;;;;;;5095784;28;19913;-83
2022/09/13 04:29:18;;;;;;;;;;;19.30;99.90;;;;;;5096787;28;19915;-83
2022/09/13 04:31:44;;;;;;;;;;;19.30;99.90;;;;;;5096306;28;20299;-83
2022/09/13 04:34:09;;;;;;;;;;;19.30;99.90;;;;;;5095576;28;19912;-83
2022/09/13 04:36:35;;;;;;;;;;;19.30;99.90;;;;;;5094763;28;19938;-83
2022/09/13 04:39:01;;;;;;;;;;;19.30;99.90;;;;;;5095470;28;19908;-83
2022/09/13 04:41:27;;;;;;;;;;;19.30;99.90;;;;;;5095311;28;19944;-82
2022/09/13 04:43:53;;;;;;;;;;;19.30;99.90;;;;;;5095620;28;19931;-83
2022/09/13 04:46:18;;;;;;;;;;;19.30;99.90;;;;;;5094194;28;19908;-82
2022/09/13 04:48:48;;;;;;;;;;;19.30;99.90;;;;;;5094142;28;20504;-82
2022/09/13 04:51:13;;;;;;;;;;;19.30;99.90;;;;;;5091479;28;20382;-84
2022/09/13 04:53:39;;;;;;;;;;;19.30;99.90;;;;;;5092372;28;19966;-84
2022/09/13 04:56:05;;;;;;;;;;;19.30;99.90;;;;;;5090784;28;20294;-82
2022/09/13 04:58:31;;;;;;;;;;;19.40;99.90;;;;;;5091906;28;20381;-83
2022/09/13 05:01:00;;;;;;;;;;;19.40;99.90;;;;;;5091259;28;20268;-83
2022/09/13 05:03:28;;;;;;;;;;;19.40;99.90;;;;;;5092593;28;19913;-83
2022/09/13 05:05:53;;;;;;;;;;;19.40;99.90;;;;;;5093000;28;19998;-82
2022/09/13 05:08:19;;;;;;;;;;;19.40;99.90;;;;;;5092695;28;20375;-82
2022/09/13 05:10:45;;;;;;;;;;;19.50;99.90;;;;;;5093517;28;19963;-82
2022/09/13 05:13:11;;;;;;;;;;;19.40;99.90;;;;;;5092624;28;20015;-82
2022/09/13 05:15:36;;;;;;;;;;;19.40;99.90;;;;;;5093394;28;19948;-82
2022/09/13 05:18:02;;;;;;;;;;;19.40;99.90;;;;;;5092177;28;19916;-83
2022/09/13 05:20:27;;;;;;;;;;;19.40;99.90;;;;;;5091923;28;19915;-82
2022/09/13 05:22:54;;;;;;;;;;;19.40;99.90;;;;;;5092256;28;19922;-83
2022/09/13 05:25:20;;;;;;;;;;;19.40;99.90;;;;;;5092008;28;19908;-83
2022/09/13 05:27:45;;;;;;;;;;;19.40;99.90;;;;;;5074198;28;19909;-82
2022/09/13 05:30:11;;;;;;;;;;;19.40;99.90;;;;;;5091908;28;19928;-83
2022/09/13 05:32:36;;;;;;;;;;;19.50;99.90;;;;;;5092301;28;19962;-82
2022/09/13 05:35:02;;;;;;;;;;;19.40;99.90;;;;;;5092595;28;19912;-82
2022/09/13 05:37:28;;;;;;;;;;;19.40;99.90;;;;;;5091792;28;19908;-82
2022/09/13 05:39:53;;;;;;;;;;;19.40;99.90;;;;;;5091399;28;19915;-83
2022/09/13 05:42:19;;;;;;;;;;;19.40;99.90;;;;;;5092413;28;19908;-82
2022/09/13 05:44:44;;;;;;;;;;;19.40;99.90;;;;;;5091460;28;20264;-82
2022/09/13 05:47:12;;;;;;;;;;;19.40;99.90;;;;;;5090964;28;19918;-82
2022/09/13 05:49:38;;;;;;;;;;;19.40;99.90;;;;;;5091466;28;19908;-83
2022/09/13 05:52:03;;;;;;;;;;;19.40;99.90;;;;;;5091176;28;20057;-83
2022/09/13 05:54:29;;;;;;;;;;;19.40;99.90;;;;;;5090555;28;19912;-83
2022/09/13 05:56:56;;;;;;;;;;;19.40;99.90;;;;;;5090819;28;19912;-82
2022/09/13 05:59:21;;;;;;;;;;;19.50;99.90;;;;;;5090871;28;19913;-82
2022/09/13 06:01:47;;;;;;;;;;;19.50;99.90;;;;;;5091081;28;20351;-82
2022/09/13 06:04:13;;;;;;;;;;;19.60;99.90;;;;;;5090417;28;19915;-82
2022/09/13 06:06:39;;;;;;;;;;;19.70;99.90;;;;;;5090695;28;20371;-82
2022/09/13 06:09:07;;;;;;;;;;;19.70;99.90;;;;;;5091275;28;19919;-82
2022/09/13 06:11:33;;;;;;;;;;;19.80;99.90;;;;;;5090942;28;19916;-82
2022/09/13 06:13:58;;;;;;;;;;;19.90;99.90;;;;;;5091015;28;19912;-83
2022/09/13 06:16:24;;;;;;;;;;;20.00;99.90;;;;;;5089904;28;19916;-82
2022/09/13 06:18:49;;;;;;;;;;;20.00;99.90;;;;;;5091217;28;19908;-82
2022/09/13 06:21:16;;;;;;;;;;;20.10;99.90;;;;;;5092019;28;19909;-81
2022/09/13 06:23:50;;;;;;;;;;;20.10;99.90;;;;;;5090246;28;19916;-83
2022/09/13 06:26:17;;;;;;;;;;;20.20;99.90;;;;;;5089176;28;19930;-85
2022/09/13 06:28:47;;;;;;;;;;;20.30;99.90;;;;;;5088958;28;19978;-83
2022/09/13 06:31:13;;;;;;;;;;;20.30;99.90;;;;;;5089046;28;19908;-83
2022/09/13 06:33:40;;;;;;;;;;;20.40;99.90;;;;;;5072319;28;19962;-83
2022/09/13 06:36:07;;;;;;;;;;;20.40;99.90;;;;;;5089150;28;19915;-82
2022/09/13 06:38:32;;;;;;;;;;;20.40;99.90;;;;;;5091147;28;19921;-81
2022/09/13 06:41:08;;;;;;;;;;;20.50;99.90;;;;;;5092233;28;20265;-81
2022/09/13 06:43:34;;;;;;;;;;;20.60;99.90;;;;;;5077552;28;20554;-80
2022/09/13 06:46:05;;;;;;;;;;;20.60;99.90;;;;;;5091345;28;19916;-82
2022/09/13 06:48:31;;;;;;;;;;;20.70;99.90;;;;;;5091467;28;19916;-84
2022/09/13 06:50:57;;;;;;;;;;;20.80;99.90;;;;;;5097431;28;19908;-80
2022/09/13 06:53:23;;;;;;;;;;;20.90;99.90;;;;;;5097922;28;19959;-80
2022/09/13 06:55:48;;;;;;;;;;;20.90;99.90;;;;;;5098156;28;19908;-80
2022/09/13 06:58:14;;;;;;;;;;;20.90;99.90;;;;;;5081183;28;19908;-81
2022/09/13 07:00:39;;;;;;;;;;;21.00;99.90;;;;;;5097957;28;19915;-81
2022/09/13 07:03:05;;;;;;;;;;;21.10;99.90;;;;;;5097603;28;19919;-81
2022/09/13 07:05:31;;;;;;;;;;;21.10;99.90;;;;;;5097688;28;20028;-80
2022/09/13 07:07:56;;;;;;;;;;;21.00;99.90;;;;;;5097947;28;19915;-80
2022/09/13 07:10:22;;;;;;;;;;;21.10;99.90;;;;;;5098895;28;19952;-79
2022/09/13 07:12:47;;;;;;;;;;;21.10;99.90;;;;;;5097778;28;19912;-81
2022/09/13 07:15:13;;;;;;;;;;;21.20;99.90;;;;;;5097365;28;20003;-80
2022/09/13 07:17:38;;;;;;;;;;;21.30;99.90;;;;;;5096973;28;19908;-80
2022/09/13 07:20:06;;;;;;;;;;;21.30;99.90;;;;;;5097113;28;20295;-81
2022/09/13 07:22:31;;;;;;;;;;;21.40;99.90;;;;;;5097341;28;19920;-80
2022/09/13 07:24:57;;;;;;;;;;;21.40;99.90;;;;;;5097004;28;20376;-80
2022/09/13 07:27:22;;;;;;;;;;;21.50;99.90;;;;;;5097054;28;19944;-80
2022/09/13 07:29:48;;;;;;;;;;;21.60;99.90;;;;;;5097522;28;19919;-81
2022/09/13 07:32:13;;;;;;;;;;;21.60;99.90;;;;;;5096671;28;19961;-79
2022/09/13 07:34:39;;;;;;;;;;;21.80;99.90;;;;;;5096798;28;19962;-80
2022/09/13 07:37:04;;;;;;;;;;;21.90;99.90;;;;;;5096509;28;20271;-80
2022/09/13 07:39:30;;;;;;;;;;;21.90;99.90;;;;;;5097140;28;20391;-80
2022/09/13 07:41:56;;;;;;;;;;;21.90;99.90;;;;;;5096150;28;19916;-80
2022/09/13 07:44:21;;;;;;;;;;;22.00;99.90;;;;;;5096567;28;19919;-80
2022/09/13 07:46:47;;;;;;;;;;;22.00;99.90;;;;;;5095074;28;19916;-82
2022/09/13 07:49:13;;;;;;;;;;;22.10;99.90;;;;;;5095690;28;19915;-82
2022/09/13 07:51:40;;;;;;;;;;;22.20;99.90;;;;;;5095685;28;19915;-81
2022/09/13 07:54:08;;;;;;;;;;;22.20;99.90;;;;;;5095999;28;19979;-81
2022/09/13 07:56:34;;;;;;;;;;;22.30;99.90;;;;;;5096816;28;20306;-81
2022/09/13 07:59:01;;;;;;;;;;;22.40;99.90;;;;;;5095827;28;19909;-83
2022/09/13 08:01:28;;;;;;;;;;;22.50;99.90;;;;;;5091480;28;19909;-81
2022/09/13 08:03:54;;;;;;;;;;;22.60;99.90;;;;;;5091797;28;19966;-82
2022/09/13 08:06:21;;;;;;;;;;;22.70;99.90;;;;;;5091371;28;19963;-81
2022/09/13 08:08:46;;;;;;;;;;;22.80;99.90;;;;;;5092001;28;19908;-81
2022/09/13 08:11:18;;;;;;;;;;;22.90;99.90;;;;;;5072282;28;20292;-82
2022/09/13 08:13:44;;;;;;;;;;;23.00;99.90;;;;;;5071707;28;20403;-82
2022/09/13 08:16:09;;;;;;;;;;;23.10;99.90;;;;;;5056205;28;19909;-82
2022/09/13 08:18:35;;;;;;;;;;;23.30;99.90;;;;;;5055741;28;20455;-81
2022/09/13 08:21:01;;;;;;;;;;;23.40;99.90;;;;;;5057046;28;19928;-82
2022/09/13 08:23:26;;;;;;;;;;;23.50;99.90;;;;;;5056806;28;19909;-82
2022/09/13 08:25:52;;;;;;;;;;;23.70;99.90;;;;;;5055771;28;20360;-81
2022/09/13 08:28:20;;;;;;;;;;;23.90;99.90;;;;;;5055845;28;19936;-82
2022/09/13 08:30:46;;;;;;;;;;;24.00;99.90;;;;;;5052912;28;19920;-81
2022/09/13 08:33:12;;;;;;;;;;;24.10;99.90;;;;;;5054694;28;20007;-82
2022/09/13 08:35:38;;;;;;;;;;;24.20;99.90;;;;;;5056039;28;19967;-81
2022/09/13 08:38:04;;;;;;;;;;;24.20;99.90;;;;;;5053721;28;19912;-82
2022/09/13 08:40:31;;;;;;;;;;;24.40;99.90;;;;;;5054150;28;20327;-81
2022/09/13 08:43:16;;;;;;;;;;;24.60;99.90;;;;;;5053775;28;19909;-81
2022/09/13 08:45:47;;;;;;;;;;;24.70;99.90;;;;;;5053550;28;19940;-82
2022/09/13 08:48:15;;;;;;;;;;;24.90;99.90;;;;;;5054158;28;19977;-81
2022/09/13 08:50:43;;;;;;;;;;;25.00;99.90;;;;;;5053601;28;19992;-81
2022/09/13 08:53:22;;;;;;;;;;;25.10;99.90;;;;;;5086857;22;19986;-84
2022/09/13 08:55:52;;;;;;;;;;;25.30;99.90;;;;;;5073448;28;19912;-84
2022/09/13 08:58:43;;;;;;;;;;;25.40;99.90;;;;;;5074445;28;19908;-84
2022/09/13 09:01:27;;;;;;;;;;;25.60;99.90;;;;;;5073152;28;19909;-82
2022/09/13 09:03:57;;;;;;;;;;;25.80;99.90;;;;;;5073091;28;19919;-84
2022/09/13 09:06:23;;;;;;;;;;;25.80;99.90;;;;;;5072309;28;19912;-84
2022/09/13 09:08:50;;;;;;;;;;;25.80;99.90;;;;;;5072877;28;20390;-84
2022/09/13 09:11:28;;;;;;;;;;;25.90;99.90;;;;;;5074339;28;20005;-84
2022/09/13 09:14:03;;;;;;;;;;;25.90;99.90;;;;;;5073702;28;19916;-84
2022/09/13 09:16:32;;;;;;;;;;;26.00;99.90;;;;;;5072102;28;19909;-84
2022/09/13 09:19:03;;;;;;;;;;;26.10;99.90;;;;;;5074073;28;19915;-84
2022/09/13 09:21:29;;;;;;;;;;;27.10;99.90;;;;;;5072869;28;19982;-85
2022/09/13 09:23:55;;;;;;;;;;;27.90;99.90;;;;;;5074033;28;20375;-85
2022/09/13 09:26:22;;;;;;;;;;;28.70;99.90;;;;;;5072161;28;19918;-84
2022/09/13 09:28:56;;;;;;;;;;;29.80;99.90;;;;;;5072456;28;19958;-84
2022/09/13 09:31:41;;;;;;;;;;;30.30;99.90;;;;;;5073903;28;19948;-84
2022/09/13 09:34:12;;;;;;;;;;;31.10;99.40;;;;;;5073986;28;19913;-84
2022/09/13 09:36:45;;;;;;;;;;;32.00;97.40;;;;;;5072847;28;20359;-85
2022/09/13 09:39:11;;;;;;;;;;;32.70;93.90;;;;;;5073427;28;20295;-85
2022/09/13 09:41:37;;;;;;;;;;;33.10;93.00;;;;;;5072218;28;19995;-86
2022/09/13 09:44:22;;;;;;;;;;;33.10;92.30;;;;;;5073299;28;20493;-85
2022/09/13 09:46:55;;;;;;;;;;;32.80;92.40;;;;;;5062430;28;19909;-90
2022/09/13 09:52:18;;;;;;;;;;;32.70;92.10;;;;;;5053500;28;19962;-89
2022/09/13 09:54:50;;;;;;;;;;;32.80;90.40;;;;;;5053882;28;19913;-91
2022/09/13 09:57:19;;;;;;;;;;;32.60;86.50;;;;;;5032220;28;19909;-90
2022/09/13 09:59:44;;;;;;;;;;;32.30;83.30;;;;;;5051494;28;19908;-88
2022/09/13 10:02:13;;;;;;;;;;;31.80;83.80;;;;;;5071448;22;19922;-81
2022/09/13 10:04:39;;;;;;;;;;;31.30;83.90;;;;;;5095406;28;19978;-84
2022/09/13 10:07:17;;;;;;;;;;;30.80;85.80;;;;;;5095294;28;19911;-82
2022/09/13 10:09:56;;;;;;;;;;;30.40;88.10;;;;;;5094746;28;19917;-81
2022/09/13 10:12:26;;;;;;;;;;;30.20;94.30;;;;;;5094524;28;19919;-85
2022/09/13 10:15:01;;;;;;;;;;;30.00;91.50;;;;;;5094393;28;20399;-82
2022/09/13 10:17:27;;;;;;;;;;;29.70;91.70;;;;;;5094749;28;19915;-80
2022/09/13 10:20:00;;;;;;;;;;;29.50;93.50;;;;;;5094434;28;19909;-83
2022/09/13 10:22:30;;;;;;;;;;;29.30;92.20;;;;;;5094148;28;19908;-84
2022/09/13 10:25:30;;;;;;;;;;;29.10;92.40;;;;;;5094723;28;19999;-83
2022/09/13 10:27:57;;;;;;;;;;;28.80;93.20;;;;;;5040199;28;19954;-83
2022/09/13 10:30:45;;;;;;;;;;;28.40;93.00;;;;;;5094470;28;19918;-83
2022/09/13 10:33:23;;;;;;;;;;;28.30;93.70;;;;;;5094283;28;19920;-83
2022/09/13 10:35:49;;;;;;;;;;;28.10;95.50;;;;;;5095582;28;19908;-83
2022/09/13 10:38:35;;;;;;;;;;;28.00;94.90;;;;;;5096014;28;19909;-83
2022/09/13 10:41:02;;;;;;;;;;;27.90;95.90;;;;;;5095774;28;19908;-81
2022/09/13 10:43:28;;;;;;;;;;;27.80;98.70;;;;;;5095633;28;19908;-84
2022/09/13 10:45:55;;;;;;;;;;;27.80;97.30;;;;;;5096355;28;19908;-81
2022/09/13 10:48:21;;;;;;;;;;;27.80;99.90;;;;;;5094629;28;19937;-84
2022/09/13 10:51:00;;;;;;;;;;;27.90;99.90;;;;;;5095223;28;19999;-83
2022/09/13 10:53:32;;;;;;;;;;;28.00;99.90;;;;;;5094751;28;19912;-83
2022/09/13 10:55:57;;;;;;;;;;;28.00;99.30;;;;;;5094609;28;19963;-84
2022/09/13 10:58:23;;;;;;;;;;;28.00;99.80;;;;;;5093401;28;19938;-84
2022/09/13 11:01:07;;;;;;;;;;;28.00;98.60;;;;;;5093571;28;19916;-83
2022/09/13 11:03:42;;;;;;;;;;;28.00;98.50;;;;;;5093227;28;19961;-84
2022/09/13 11:06:26;;;;;;;;;;;28.10;99.90;;;;;;5094255;28;19918;-85
2022/09/13 11:08:59;;;;;;;;;;;28.20;99.90;;;;;;5094114;28;19908;-85
2022/09/13 11:11:25;;;;;;;;;;;28.20;98.50;;;;;;5094041;28;19915;-83
2022/09/13 11:13:53;;;;;;;;;;;28.30;99.40;;;;;;5092851;28;20010;-83
2022/09/13 11:16:31;;;;;;;;;;;28.40;99.90;;;;;;5093838;28;19966;-85
2022/09/13 11:19:02;;;;;;;;;;;28.40;99.60;;;;;;5094755;28;20283;-87
2022/09/13 11:21:28;;;;;;;;;;;28.50;97.90;;;;;;5095110;28;19978;-86
2022/09/13 11:23:53;;;;;;;;;;;28.50;98.70;;;;;;5096641;28;20413;-84
2022/09/13 11:26:25;;;;;;;;;;;28.60;99.30;;;;;;5096019;28;19934;-85
2022/09/13 11:29:03;;;;;;;;;;;28.60;99.90;;;;;;5087994;28;19909;-84
2022/09/13 11:31:43;;;;;;;;;;;28.60;98.90;;;;;;5069568;28;19913;-85
2022/09/13 11:34:08;;;;;;;;;;;28.70;99.50;;;;;;5073753;28;20004;-84
2022/09/13 11:36:40;;;;;;;;;;;28.70;99.00;;;;;;5075496;28;20469;-85
2022/09/13 11:39:06;;;;;;;;;;;28.50;97.70;;;;;;5077191;28;19909;-84
2022/09/13 11:41:41;;;;;;;;;;;28.50;98.00;;;;;;5077792;28;19916;-84
2022/09/13 11:44:16;;;;;;;;;;;28.40;99.00;;;;;;5077336;28;19912;-85
2022/09/13 11:46:55;;;;;;;;;;;28.40;99.20;;;;;;5075383;28;19912;-85
2022/09/13 11:49:32;;;;;;;;;;;28.40;98.30;;;;;;5075874;28;19999;-84
2022/09/13 11:51:58;;;;;;;;;;;28.40;97.80;;;;;;5075829;28;19916;-81
2022/09/13 11:54:27;;;;;;;;;;;28.40;97.10;;;;;;5091174;28;20003;-82
2022/09/13 11:56:58;;;;;;;;;;;28.40;98.30;;;;;;5093575;28;19951;-82
2022/09/13 11:59:33;;;;;;;;;;;28.40;98.30;;;;;;5090031;28;19913;-82
2022/09/13 12:02:02;;;;;;;;;;;28.50;99.90;;;;;;5087941;28;19913;-81
2022/09/13 12:04:37;;;;;;;;;;;28.60;96.50;;;;;;5081256;28;19912;-77
2022/09/13 12:07:17;;;;;;;;;;;28.60;94.70;;;;;;5078196;28;19991;-77
2022/09/13 12:09:56;;;;;;;;;;;28.50;95.30;;;;;;5076945;28;19955;-78
2022/09/13 12:12:26;;;;;;;;;;;28.60;96.20;;;;;;5076977;28;19916;-78
2022/09/13 12:15:01;;;;;;;;;;;28.70;97.20;;;;;;5075205;28;19909;-81
2022/09/13 12:17:29;;;;;;;;;;;28.70;95.30;;;;;;5074877;28;20518;-81
2022/09/13 12:19:57;;;;;;;;;;;28.90;94.80;;;;;;5075023;28;19909;-82
2022/09/13 12:22:25;;;;;;;;;;;29.10;95.90;;;;;;5076546;28;20002;-81
2022/09/13 12:24:56;;;;;;;;;;;29.10;93.70;;;;;;5074958;28;19999;-82
2022/09/13 12:27:29;;;;;;;;;;;29.00;94.20;;;;;;5074189;28;20008;-81
2022/09/13 12:30:06;;;;;;;;;;;29.10;94.10;;;;;;5074802;28;19948;-85
2022/09/13 12:32:31;;;;;;;;;;;29.10;94.30;;;;;;5074685;28;20015;-79
2022/09/13 12:34:57;;;;;;;;;;;29.10;94.60;;;;;;5074456;28;20355;-81
2022/09/13 12:37:25;;;;;;;;;;;29.00;94.70;;;;;;5079459;28;19938;-79
2022/09/13 12:39:55;;;;;;;;;;;28.90;94.20;;;;;;5078266;28;19912;-80
2022/09/13 12:42:32;;;;;;;;;;;28.80;94.40;;;;;;5074372;28;20011;-83
2022/09/13 12:45:02;;;;;;;;;;;28.80;95.50;;;;;;5073675;28;20003;-85
2022/09/13 12:47:28;;;;;;;;;;;28.90;95.60;;;;;;5072988;28;19909;-83
2022/09/13 12:50:03;;;;;;;;;;;29.20;95.60;;;;;;5074086;28;19916;-81
2022/09/13 12:52:47;;;;;;;;;;;29.40;95.10;;;;;;5073595;28;19909;-83
2022/09/13 12:55:31;;;;;;;;;;;29.40;94.30;;;;;;5073622;28;20333;-84
2022/09/13 12:58:00;;;;;;;;;;;29.30;94.10;;;;;;5077837;28;19912;-77
2022/09/13 13:00:28;;;;;;;;;;;29.30;95.10;;;;;;5081598;28;19915;-78
2022/09/13 13:03:11;;;;;;;;;;;29.30;93.10;;;;;;5075074;28;19920;-81
2022/09/13 13:05:40;;;;;;;;;;;29.30;94.10;;;;;;5073148;28;19956;-81
2022/09/13 13:08:17;;;;;;;;;;;29.20;92.80;;;;;;5073238;28;20371;-82
2022/09/13 13:10:42;;;;;;;;;;;29.40;93.10;;;;;;5073500;28;19960;-82
2022/09/13 13:13:17;;;;;;;;;;;29.60;92.30;;;;;;5073308;28;19963;-81
2022/09/13 13:15:43;;;;;;;;;;;29.90;92.70;;;;;;5072463;28;19909;-82
2022/09/13 13:18:44;;;;;;;;;;;30.20;92.10;;;;;;5072853;28;19934;-82
2022/09/13 13:21:36;;;;;;;;;;;30.20;90.70;;;;;;5015217;28;19909;-82
2022/09/13 13:24:13;;;;;;;;;;;30.10;91.00;;;;;;5071088;28;19916;-82
2022/09/13 13:26:43;;;;;;;;;;;29.90;91.20;;;;;;5075119;28;19908;-82
2022/09/13 13:29:14;;;;;;;;;;;29.80;92.10;;;;;;5075237;28;20007;-82
2022/09/13 13:31:41;;;;;;;;;;;29.70;91.80;;;;;;5075486;28;20283;-82
2022/09/13 13:34:07;;;;;;;;;;;29.60;90.80;;;;;;5075923;28;19963;-82
2022/09/13 13:36:38;;;;;;;;;;;29.50;92.20;;;;;;5074908;28;20319;-82
2022/09/13 13:39:25;;;;;;;;;;;29.50;92.40;;;;;;5075297;28;20431;-82
2022/09/13 13:41:54;;;;;;;;;;;29.50;93.30;;;;;;5074755;28;20334;-82
2022/09/13 13:44:20;;;;;;;;;;;29.60;94.20;;;;;;5074887;28;19987;-82
2022/09/13 13:46:46;;;;;;;;;;;29.70;92.80;;;;;;5074146;28;19943;-82
2022/09/13 13:49:30;;;;;;;;;;;29.70;92.10;;;;;;5073528;28;20307;-82
2022/09/13 13:52:08;;;;;;;;;;;29.90;94.10;;;;;;5073243;28;20384;-82
2022/09/13 13:54:49;;;;;;;;;;;30.10;92.50;;;;;;5072664;28;20294;-82
2022/09/13 13:57:34;;;;;;;;;;;30.20;92.30;;;;;;5073079;28;19915;-81
2022/09/13 14:00:21;;;;;;;;;;;30.30;91.20;;;;;;5072006;28;19913;-82
2022/09/13 14:02:52;;;;;;;;;;;30.30;91.80;;;;;;5072802;28;19917;-82
2022/09/13 14:05:29;;;;;;;;;;;30.40;92.40;;;;;;5062139;28;19939;-81
2022/09/13 14:08:14;;;;;;;;;;;30.50;91.20;;;;;;5052841;28;19908;-81
2022/09/13 14:10:58;;;;;;;;;;;30.60;92.00;;;;;;5053003;28;19915;-81
2022/09/13 14:13:34;;;;;;;;;;;30.60;92.90;;;;;;5052926;28;19919;-81
2022/09/13 14:16:08;;;;;;;;;;;30.80;91.10;;;;;;5062788;28;20371;-81
2022/09/13 14:18:37;;;;;;;;;;;30.80;91.30;;;;;;5072858;28;19908;-81
2022/09/13 14:21:04;;;;;;;;;;;30.90;88.10;;;;;;5071528;28;19948;-80
2022/09/13 14:23:30;;;;;;;;;;;31.10;87.80;;;;;;5071731;28;19916;-82
2022/09/13 14:25:59;;;;;;;;;;;31.60;90.00;;;;;;5072719;28;19908;-82
2022/09/13 14:28:25;;;;;;;;;;;32.00;86.90;;;;;;5072919;28;19954;-82
2022/09/13 14:30:55;;;;;;;;;;;32.60;85.50;;;;;;5072897;28;19912;-81
2022/09/13 14:33:36;;;;;;;;;;;33.50;82.30;;;;;;5073597;28;19920;-82
2022/09/13 14:36:01;;;;;;;;;;;35.40;85.10;;;;;;5074436;28;19912;-82